createdAt,value
2018-05-15T00:02:00.728Z,9.82
2018-05-15T00:04:31.809Z,7.70
2018-05-15T00:07:02.727Z,10.90
2018-05-15T00:09:33.715Z,9.13
2018-05-15T00:12:04.795Z,11.77
2018-05-15T00:14:35.699Z,9.82
2018-05-15T00:17:06.684Z,8.85
2018-05-15T00:19:37.648Z,9.65
2018-05-15T00:22:08.739Z,10.55
2018-05-15T00:24:39.771Z,10.82
2018-05-15T00:27:10.802Z,11.15
2018-05-15T00:29:41.673Z,9.02
2018-05-15T00:32:12.206Z,8.97
2018-05-15T00:34:42.936Z,8.60
2018-05-15T00:37:14.035Z,9.40
2018-05-15T00:39:44.745Z,8.25
2018-05-15T00:42:15.707Z,8.85
2018-05-15T00:44:46.711Z,9.25
2018-05-15T00:47:17.411Z,8.77
2018-05-15T00:49:48.982Z,10.88
2018-05-15T00:52:20.024Z,9.77
2018-05-15T00:54:50.776Z,9.45
2018-05-15T00:57:21.828Z,7.22
2018-05-15T00:59:52.229Z,7.38
2018-05-15T01:02:23.056Z,12.10
2018-05-15T01:04:54.106Z,7.50
2018-05-15T01:07:24.898Z,8.27
2018-05-15T01:09:55.698Z,9.43
2018-05-15T01:12:26.717Z,8.00
2018-05-15T01:14:57.693Z,8.70
2018-05-15T01:17:28.707Z,8.48
2018-05-15T01:19:59.693Z,7.68
2018-05-15T01:22:30.488Z,9.55
2018-05-15T01:25:00.978Z,9.10
2018-05-15T01:27:32.021Z,9.82
2018-05-15T01:30:02.778Z,7.95
2018-05-15T01:32:33.814Z,9.77
2018-05-15T01:35:04.447Z,10.70
2018-05-15T01:37:36.029Z,8.56
2018-05-15T01:40:06.759Z,7.95
2018-05-15T01:42:37.714Z,10.05
2018-05-15T01:45:08.311Z,11.16
2018-05-15T01:47:39.201Z,12.32
2018-05-15T01:50:09.975Z,8.20
2018-05-15T01:52:40.820Z,8.70
2018-05-15T01:55:11.635Z,9.63
2018-05-15T01:57:42.977Z,9.10
2018-05-15T02:00:13.729Z,8.52
2018-05-15T02:02:44.718Z,7.40
2018-05-15T02:05:15.701Z,9.30
2018-05-15T02:07:46.678Z,8.05
2018-05-15T02:10:17.719Z,10.90
2018-05-15T02:12:48.697Z,9.95
2018-05-15T02:15:19.686Z,7.35
2018-05-15T02:17:50.668Z,9.00
2018-05-15T02:20:21.720Z,9.27
2018-05-15T02:22:52.834Z,8.07
2018-05-15T02:25:23.653Z,8.18
2018-05-15T02:27:54.733Z,10.00
2018-05-15T02:30:24.629Z,7.20
2018-05-15T02:32:55.747Z,8.63
2018-05-15T02:35:26.743Z,10.05
2018-05-15T02:37:57.772Z,9.60
2018-05-15T02:40:28.730Z,9.27
2018-05-15T02:42:59.719Z,10.48
2018-05-15T02:45:30.274Z,10.06
2018-05-15T02:48:01.081Z,7.68
2018-05-15T02:50:31.802Z,7.45
2018-05-15T02:53:02.825Z,9.05
2018-05-15T02:55:33.626Z,8.88
2018-05-15T02:58:04.511Z,7.60
2018-05-15T03:00:35.192Z,7.68
2018-05-15T03:03:06.002Z,10.50
2018-05-15T03:05:36.727Z,8.50
2018-05-15T03:08:07.699Z,9.00
2018-05-15T03:10:38.648Z,9.20
2018-05-15T03:13:09.274Z,8.02
2018-05-15T03:15:39.998Z,8.27
2018-05-15T03:18:10.818Z,6.97
2018-05-15T03:20:41.639Z,8.23
2018-05-15T03:23:12.845Z,6.95
2018-05-15T03:25:43.807Z,12.30
2018-05-15T03:28:14.832Z,7.93
2018-05-15T03:30:45.716Z,8.95
2018-05-15T03:33:16.686Z,9.18
2018-05-15T03:35:47.627Z,10.52
2018-05-15T03:38:18.695Z,10.23
2018-05-15T03:40:49.697Z,11.73
2018-05-15T03:43:20.843Z,11.32
2018-05-15T03:45:51.733Z,8.82
2018-05-15T03:48:22.763Z,10.60
2018-05-15T03:50:53.702Z,9.77
2018-05-15T03:53:24.729Z,11.75
2018-05-15T03:55:55.712Z,7.80
2018-05-15T03:58:26.751Z,9.82
2018-05-15T04:01:08.796Z,10.60
2018-05-15T04:03:48.832Z,7.47
2018-05-15T04:06:28.965Z,11.00
2018-05-15T04:08:59.775Z,11.77
2018-05-15T04:11:28.751Z,9.10
2018-05-15T04:13:58.055Z,10.47
2018-05-15T04:16:27.013Z,9.07
2018-05-15T04:18:56.212Z,9.77
2018-05-15T04:21:25.230Z,8.60
2018-05-15T04:23:54.656Z,8.20
2018-05-15T04:26:23.959Z,10.40
2018-05-15T04:28:53.223Z,14.35
2018-05-15T04:31:22.275Z,10.60
2018-05-15T04:33:51.290Z,15.07
2018-05-15T04:36:20.251Z,11.48
2018-05-15T04:38:49.264Z,9.30
2018-05-15T04:41:18.218Z,9.05
2018-05-15T04:43:47.296Z,9.53
2018-05-15T04:46:16.447Z,8.33
2018-05-15T04:48:48.148Z,12.25
2018-05-15T04:51:18.249Z,9.02
2018-05-15T04:53:48.954Z,8.90
2018-05-15T04:56:19.905Z,11.52
2018-05-15T04:58:50.797Z,12.10
2018-05-15T05:01:21.779Z,10.32
2018-05-15T05:03:52.714Z,12.18
2018-05-15T05:06:23.866Z,11.73
2018-05-15T05:08:54.572Z,10.73
2018-05-15T05:11:25.674Z,14.70
2018-05-15T05:13:56.699Z,12.73
2018-05-15T05:16:27.723Z,11.82
2018-05-15T05:18:58.660Z,15.05
2018-05-15T05:21:29.831Z,16.00
2018-05-15T05:24:00.632Z,16.98
2018-05-15T05:26:31.774Z,11.00
2018-05-15T05:29:02.451Z,14.05
2018-05-15T05:31:34.450Z,11.44
2018-05-15T05:34:04.954Z,14.17
2018-05-15T05:36:35.712Z,17.83
2018-05-15T05:39:07.301Z,14.98
2018-05-15T05:41:37.275Z,13.50
2018-05-15T05:44:07.918Z,12.60
2018-05-15T05:46:38.746Z,15.00
2018-05-15T05:49:09.701Z,12.05
2018-05-15T05:51:40.672Z,11.98
2018-05-15T05:54:11.658Z,13.38
2018-05-15T05:56:42.834Z,14.68
2018-05-15T05:59:13.830Z,14.57
2018-05-15T06:01:44.739Z,15.35
2018-05-15T06:04:15.730Z,11.95
2018-05-15T06:06:46.741Z,11.07
2018-05-15T06:09:17.710Z,12.10
2018-05-15T06:11:48.690Z,16.45
2018-05-15T06:14:19.730Z,13.10
2018-05-15T06:16:50.646Z,16.87
2018-05-15T06:19:21.547Z,13.75
2018-05-15T06:21:52.898Z,11.18
2018-05-15T06:24:23.739Z,13.68
2018-05-15T06:26:54.914Z,13.68
2018-05-15T06:29:25.657Z,13.27
2018-05-15T06:31:57.506Z,12.12
2018-05-15T06:34:28.157Z,14.15
2018-05-15T06:37:02.336Z,12.90
2018-05-15T06:39:31.291Z,12.55
2018-05-15T06:42:01.400Z,12.20
2018-05-15T06:44:32.082Z,12.44
2018-05-15T06:47:02.875Z,14.35
2018-05-15T06:49:33.714Z,13.38
2018-05-15T06:52:04.486Z,13.94
2018-05-15T06:54:35.177Z,15.77
2018-05-15T06:57:05.971Z,12.10
2018-05-15T06:59:36.759Z,11.60
2018-05-15T07:02:07.856Z,12.95
2018-05-15T07:04:37.979Z,10.75
2018-05-15T07:07:08.795Z,11.73
2018-05-15T07:09:39.686Z,9.27
2018-05-15T07:12:10.794Z,14.65
2018-05-15T07:14:41.722Z,9.73
2018-05-15T07:17:12.571Z,16.23
2018-05-15T07:19:43.668Z,7.37
2018-05-15T07:22:14.560Z,8.40
2018-05-15T07:24:45.208Z,8.27
2018-05-15T07:27:15.895Z,8.80
2018-05-15T07:29:46.717Z,10.15
2018-05-15T07:32:17.653Z,7.90
2018-05-15T07:34:48.661Z,10.68
2018-05-15T07:37:19.635Z,7.75
2018-05-15T07:39:50.642Z,4.95
2018-05-15T07:42:21.639Z,10.52
2018-05-15T07:44:52.863Z,9.40
2018-05-15T07:47:23.265Z,6.20
2018-05-15T07:49:54.090Z,11.30
2018-05-15T07:52:24.731Z,6.70
2018-05-15T07:54:55.659Z,6.00
2018-05-15T07:57:26.645Z,7.43
2018-05-15T07:59:56.985Z,6.10
2018-05-15T08:02:27.659Z,5.97
2018-05-15T08:04:58.630Z,6.45
2018-05-15T08:07:29.594Z,6.12
2018-05-15T08:10:00.741Z,5.18
2018-05-15T08:12:31.658Z,8.90
2018-05-15T08:15:02.662Z,8.65
2018-05-15T08:17:34.498Z,4.40
2018-05-15T08:20:04.306Z,7.07
2018-05-15T08:22:35.220Z,7.07
2018-05-15T08:25:06.212Z,7.32
2018-05-15T08:27:36.159Z,5.70
2018-05-15T08:30:06.935Z,5.00
2018-05-15T08:32:37.643Z,5.55
2018-05-15T08:35:08.690Z,6.57
2018-05-15T08:37:39.777Z,10.30
2018-05-15T08:40:10.855Z,4.68
2018-05-15T08:42:41.678Z,7.60
2018-05-15T08:45:12.724Z,5.93
2018-05-15T08:47:43.684Z,5.78
2018-05-15T08:50:14.894Z,8.13
2018-05-15T08:52:45.660Z,6.25
2018-05-15T08:55:16.790Z,5.00
2018-05-15T08:57:47.670Z,4.30
2018-05-15T09:00:18.758Z,10.55
2018-05-15T09:02:49.591Z,3.85
2018-05-15T09:05:20.762Z,5.35
2018-05-15T09:07:51.578Z,3.80
2018-05-15T09:10:22.696Z,9.00
2018-05-15T09:12:53.232Z,3.50
2018-05-15T09:15:23.963Z,6.50
2018-05-15T09:17:54.700Z,3.72
2018-05-15T09:20:25.610Z,4.22
2018-05-15T09:22:56.666Z,5.62
2018-05-15T09:25:27.729Z,4.87
2018-05-15T09:27:58.747Z,5.72
2018-05-15T09:30:29.289Z,4.98
2018-05-15T09:33:00.019Z,7.30
2018-05-15T09:35:30.746Z,5.15
2018-05-15T09:38:01.673Z,5.57
2018-05-15T09:40:32.644Z,5.40
2018-05-15T09:43:03.649Z,5.75
2018-05-15T09:45:34.646Z,7.70
2018-05-15T09:48:05.338Z,4.30
2018-05-15T09:50:36.946Z,4.86
2018-05-15T09:53:07.765Z,5.18
2018-05-15T09:55:38.766Z,7.97
2018-05-15T09:58:09.652Z,4.95
2018-05-15T10:00:40.699Z,4.87
2018-05-15T10:03:11.587Z,5.05
2018-05-15T10:05:42.710Z,8.40
2018-05-15T10:08:13.600Z,5.93
2018-05-15T10:10:45.027Z,3.53
2018-05-15T10:13:15.739Z,2.95
2018-05-15T10:15:46.715Z,3.78
2018-05-15T10:18:17.647Z,4.12
2018-05-15T10:20:48.614Z,2.78
2018-05-15T10:23:19.618Z,4.97
2018-05-15T10:25:50.664Z,5.07
2018-05-15T10:28:21.183Z,2.62
2018-05-15T10:30:51.917Z,4.07
2018-05-15T10:33:22.654Z,3.22
2018-05-15T10:35:53.691Z,3.12
2018-05-15T10:38:24.573Z,3.53
2018-05-15T10:40:55.602Z,3.15
2018-05-15T10:43:26.622Z,2.47
2018-05-15T10:45:57.677Z,4.25
2018-05-15T10:48:28.634Z,4.10
2018-05-15T10:50:59.742Z,4.75
2018-05-15T10:53:30.202Z,3.82
2018-05-15T10:56:00.934Z,4.10
2018-05-15T10:58:31.884Z,6.40
2018-05-15T11:01:02.717Z,3.70
2018-05-15T11:03:33.294Z,5.02
2018-05-15T11:06:04.353Z,4.36
2018-05-15T11:08:35.158Z,3.78
2018-05-15T11:11:05.630Z,4.32
2018-05-15T11:13:36.639Z,4.25
2018-05-15T11:16:07.658Z,6.97
2018-05-15T11:18:45.871Z,7.20
2018-05-15T11:21:25.871Z,9.03
2018-05-15T11:24:06.151Z,10.05
2018-05-15T11:26:35.367Z,6.67
2018-05-15T11:29:04.329Z,4.73
2018-05-15T11:31:33.283Z,3.20
2018-05-15T11:34:02.353Z,3.37
2018-05-15T11:36:31.663Z,4.72
2018-05-15T11:39:00.898Z,3.25
2018-05-15T11:41:29.870Z,4.23
2018-05-15T11:43:59.165Z,5.03
2018-05-15T11:46:28.126Z,3.50
2018-05-15T11:48:57.919Z,4.00
2018-05-15T11:51:27.863Z,3.23
2018-05-15T11:53:56.318Z,7.55
2018-05-15T11:56:25.448Z,4.53
2018-05-15T11:58:55.539Z,4.30
2018-05-15T12:01:25.331Z,6.03
2018-05-15T12:03:56.271Z,3.34
2018-05-15T12:06:27.190Z,2.80
2018-05-15T12:08:57.964Z,3.53
2018-05-15T12:11:28.686Z,5.55
2018-05-15T12:13:59.724Z,5.57
2018-05-15T12:16:30.617Z,4.62
2018-05-15T12:19:01.708Z,3.90
2018-05-15T12:21:32.582Z,5.32
2018-05-15T12:24:03.720Z,4.57
2018-05-15T12:26:34.605Z,6.55
2018-05-15T12:29:05.780Z,5.43
2018-05-15T12:31:36.478Z,4.43
2018-05-15T12:34:07.198Z,9.85
2018-05-15T12:36:37.870Z,5.12
2018-05-15T12:39:08.379Z,5.96
2018-05-15T12:41:39.151Z,5.14
2018-05-15T12:44:10.027Z,5.18
2018-05-15T12:46:40.672Z,8.25
2018-05-15T12:49:11.622Z,6.50
2018-05-15T12:51:43.074Z,4.74
2018-05-15T12:54:14.043Z,5.82
2018-05-15T12:56:44.829Z,7.10
2018-05-15T12:59:15.641Z,5.65
2018-05-15T13:01:46.713Z,6.70
2018-05-15T13:04:18.079Z,7.10
2018-05-15T13:06:48.795Z,7.35
2018-05-15T13:09:19.633Z,8.05
2018-05-15T13:11:50.654Z,8.43
2018-05-15T13:14:21.723Z,8.10
2018-05-15T13:16:52.594Z,8.73
2018-05-15T13:19:23.706Z,8.02
2018-05-15T13:21:54.574Z,6.20
2018-05-15T13:24:25.724Z,7.97
2018-05-15T13:26:55.954Z,8.68
2018-05-15T13:29:26.734Z,6.50
2018-05-15T13:31:58.398Z,6.56
2018-05-15T13:34:29.188Z,5.45
2018-05-15T13:36:59.858Z,6.28
2018-05-15T13:39:32.690Z,6.45
2018-05-15T13:42:01.619Z,7.10
2018-05-15T13:44:32.254Z,6.60
2018-05-15T13:47:02.926Z,5.60
2018-05-15T13:49:33.715Z,6.05
2018-05-15T13:52:04.656Z,5.72
2018-05-15T13:54:35.709Z,7.03
2018-05-15T13:57:06.634Z,6.20
2018-05-15T13:59:37.693Z,4.80
2018-05-15T14:02:08.609Z,7.15
2018-05-15T14:04:39.730Z,5.65
2018-05-15T14:07:10.599Z,6.60
2018-05-15T14:09:41.697Z,6.80
2018-05-15T14:12:12.578Z,6.75
2018-05-15T14:14:43.664Z,6.47
2018-05-15T14:17:14.163Z,7.12
2018-05-15T14:19:44.878Z,8.15
2018-05-15T14:22:15.732Z,8.48
2018-05-15T14:24:46.691Z,7.72
2018-05-15T14:27:18.537Z,7.05
2018-05-15T14:29:49.206Z,7.40
2018-05-15T14:32:20.031Z,8.63
2018-05-15T14:34:50.849Z,6.53
2018-05-15T14:37:21.599Z,4.30
2018-05-15T14:39:52.612Z,3.80
2018-05-15T14:42:36.224Z,11.02
2018-05-15T14:45:05.288Z,12.57
2018-05-15T14:47:34.249Z,7.80
2018-05-15T14:50:03.185Z,11.40
2018-05-15T14:52:32.154Z,7.85
2018-05-15T14:55:01.173Z,8.87
2018-05-15T14:57:30.215Z,44.60
2018-05-15T15:00:00.995Z,22.52
2018-05-15T15:02:31.196Z,21.05
2018-05-15T15:05:01.874Z,9.90
2018-05-15T15:07:32.698Z,10.95
2018-05-15T15:10:03.262Z,8.70
2018-05-15T15:12:34.029Z,11.70
2018-05-15T15:15:05.026Z,13.60
2018-05-15T15:17:35.010Z,15.20
2018-05-15T15:20:05.713Z,9.07
2018-05-15T15:22:36.317Z,9.30
2018-05-15T15:25:07.258Z,14.27
2018-05-15T15:27:38.079Z,9.23
2018-05-15T15:30:08.767Z,15.02
2018-05-15T15:32:40.082Z,12.30
2018-05-15T15:35:10.798Z,11.18
2018-05-15T15:37:41.357Z,9.28
2018-05-15T15:40:11.970Z,7.72
2018-05-15T15:42:42.775Z,8.07
2018-05-15T15:45:13.673Z,5.90
2018-05-15T15:47:44.685Z,6.07
2018-05-15T15:50:15.766Z,4.30
2018-05-15T15:52:46.763Z,4.50
2018-05-15T15:55:17.662Z,4.47
2018-05-15T15:57:48.774Z,4.32
2018-05-15T16:00:19.668Z,6.28
2018-05-15T16:02:50.725Z,6.40
2018-05-15T16:05:21.778Z,10.45
2018-05-15T16:07:52.642Z,8.57
2018-05-15T16:10:23.642Z,14.77
2018-05-15T16:12:54.390Z,5.14
2018-05-15T16:15:25.086Z,6.28
2018-05-15T16:17:55.142Z,4.30
2018-05-15T16:20:25.871Z,6.30
2018-05-15T16:22:56.644Z,6.60
2018-05-15T16:25:27.649Z,3.42
2018-05-15T16:27:58.734Z,7.78
2018-05-15T16:30:29.631Z,4.28
2018-05-15T16:33:00.633Z,6.45
2018-05-15T16:35:31.627Z,3.80
2018-05-15T16:38:02.335Z,5.95
2018-05-15T16:40:33.077Z,5.05
2018-05-15T16:43:03.864Z,9.57
2018-05-15T16:45:33.970Z,10.13
2018-05-15T16:48:04.757Z,10.23
2018-05-15T16:50:35.710Z,6.25
2018-05-15T16:53:06.772Z,5.57
2018-05-15T16:55:37.626Z,5.93
2018-05-15T16:58:08.750Z,5.35
2018-05-15T17:00:39.610Z,6.85
2018-05-15T17:03:10.777Z,5.80
2018-05-15T17:05:41.701Z,7.55
2018-05-15T17:08:12.747Z,8.52
2018-05-15T17:10:43.688Z,7.53
2018-05-15T17:13:14.964Z,8.26
2018-05-15T17:15:45.654Z,10.15
2018-05-15T17:18:16.329Z,7.28
2018-05-15T17:20:48.314Z,10.72
2018-05-15T17:23:18.393Z,11.18
2018-05-15T17:25:49.147Z,9.88
2018-05-15T17:28:19.975Z,13.20
2018-05-15T17:30:50.687Z,11.93
2018-05-15T17:33:21.769Z,10.23
2018-05-15T17:35:52.295Z,9.26
2018-05-15T17:38:23.035Z,8.76
2018-05-15T17:40:53.800Z,14.15
2018-05-15T17:43:24.884Z,14.65
2018-05-15T17:59:08.951Z,11.20
2018-05-15T18:01:38.907Z,9.77
2018-05-15T18:04:07.992Z,12.70
2018-05-15T18:06:37.231Z,17.27
2018-05-15T18:09:05.664Z,17.70
2018-05-15T18:11:35.193Z,13.60
2018-05-15T18:14:04.304Z,9.70
2018-05-15T18:16:33.360Z,12.70
2018-05-15T18:19:02.693Z,10.63
2018-05-15T18:21:32.583Z,9.87
2018-05-15T18:24:04.552Z,9.90
2018-05-15T18:26:35.052Z,10.70
2018-05-15T18:29:04.296Z,12.67
2018-05-15T18:31:35.607Z,10.40
2018-05-15T18:34:04.802Z,11.27
2018-05-15T18:36:34.028Z,12.27
2018-05-15T18:39:04.339Z,13.37
2018-05-15T18:41:33.825Z,11.67
2018-05-15T18:44:02.942Z,11.43
2018-05-15T18:46:32.684Z,10.77
2018-05-15T18:49:02.433Z,11.67
2018-05-15T18:51:33.496Z,12.10
2018-05-15T18:54:04.441Z,13.80
2018-05-15T18:56:33.920Z,9.87
2018-05-15T18:59:03.284Z,11.90
2018-05-15T19:01:32.315Z,9.93
2018-05-15T19:04:02.290Z,10.00
2018-05-15T19:06:31.398Z,12.17
2018-05-15T19:09:00.547Z,10.40
2018-05-15T19:11:29.839Z,10.80
2018-05-15T19:13:58.951Z,12.83
2018-05-15T19:16:28.364Z,10.43
2018-05-15T19:18:57.953Z,11.40
2018-05-15T19:21:27.107Z,13.20
2018-05-15T19:23:57.097Z,11.00
2018-05-15T19:26:26.671Z,12.57
2018-05-15T19:28:55.822Z,12.50
2018-05-15T19:31:30.578Z,12.87
2018-05-15T19:34:00.296Z,11.93
2018-05-15T19:36:32.273Z,11.67
2018-05-15T19:39:06.829Z,11.93
2018-05-15T19:41:36.640Z,13.30
2018-05-15T19:44:07.347Z,12.70
2018-05-15T19:46:36.509Z,13.07
2018-05-15T19:49:05.955Z,13.23
2018-05-15T19:51:35.398Z,13.48
2018-05-15T19:54:09.922Z,14.27
2018-05-15T19:56:39.093Z,12.37
2018-05-15T19:59:08.496Z,11.60
2018-05-15T20:01:37.478Z,12.77
2018-05-15T20:04:06.583Z,12.73
2018-05-15T20:06:36.068Z,12.53
2018-05-15T20:09:06.266Z,16.37
2018-05-15T20:11:35.475Z,14.17
2018-05-15T20:14:06.032Z,12.67
2018-05-15T20:16:35.469Z,12.67
2018-05-15T20:19:04.468Z,12.10
2018-05-15T20:21:33.927Z,13.27
2018-05-15T20:24:03.191Z,13.70
2018-05-15T20:26:32.371Z,15.07
2018-05-15T20:29:01.789Z,13.88
2018-05-15T20:31:30.812Z,13.47
2018-05-15T20:34:01.011Z,12.60
2018-05-15T20:36:30.955Z,14.87
2018-05-15T20:38:59.982Z,14.73
2018-05-15T20:41:29.291Z,13.88
2018-05-15T20:44:00.013Z,13.97
2018-05-15T20:46:29.307Z,15.07
2018-05-15T20:48:58.629Z,13.80
2018-05-15T20:51:27.766Z,15.97
2018-05-15T20:53:57.760Z,17.53
2018-05-15T20:56:26.838Z,14.10
2018-05-15T20:58:55.920Z,13.37
2018-05-15T21:01:25.468Z,12.73
2018-05-15T21:03:54.540Z,12.70
2018-05-15T21:06:24.018Z,11.97
2018-05-15T21:08:53.163Z,12.03
2018-05-15T21:11:22.511Z,12.27
2018-05-15T21:13:51.900Z,13.67
2018-05-15T21:16:20.964Z,11.53
2018-05-15T21:18:50.057Z,13.00
2018-05-15T21:21:19.157Z,12.60
2018-05-15T21:23:49.148Z,12.97
2018-05-15T21:26:20.282Z,13.13
2018-05-15T21:28:49.361Z,12.33
2018-05-15T21:31:18.535Z,12.90
2018-05-15T21:33:47.625Z,13.23
2018-05-15T21:36:17.039Z,15.35
2018-05-15T21:38:46.237Z,14.13
2018-05-15T21:41:15.519Z,13.57
2018-05-15T21:43:44.612Z,15.90
2018-05-15T21:46:15.026Z,16.95
2018-05-15T21:48:44.129Z,14.60
2018-05-15T21:51:13.168Z,15.27
2018-05-15T21:53:43.109Z,14.93
2018-05-15T21:56:12.256Z,15.57
2018-05-15T21:58:41.940Z,16.10
2018-05-15T22:01:10.620Z,16.75
2018-05-15T22:03:39.727Z,15.86
2018-05-15T22:06:08.883Z,15.80
2018-05-15T22:08:37.928Z,16.33
2018-05-15T22:11:14.808Z,17.00
2018-05-15T22:13:54.905Z,17.13
2018-05-15T22:16:34.960Z,14.90
2018-05-15T22:19:15.317Z,15.80
2018-05-15T22:21:56.099Z,17.12
2018-05-15T22:24:29.452Z,17.77
2018-05-15T22:26:58.699Z,15.17
2018-05-15T22:29:27.674Z,16.83
2018-05-15T22:31:56.676Z,16.10
2018-05-15T22:34:25.965Z,14.00
2018-05-15T22:36:56.005Z,14.13
2018-05-15T22:39:25.515Z,14.83
2018-05-15T22:41:54.790Z,13.73
2018-05-15T22:44:23.895Z,13.27
2018-05-15T22:46:53.217Z,14.40
2018-05-15T22:49:22.667Z,14.40
2018-05-15T22:51:51.870Z,13.97
2018-05-15T22:54:20.939Z,13.57
2018-05-15T22:56:50.226Z,13.50
2018-05-15T22:59:20.123Z,14.10
2018-05-15T23:01:50.312Z,13.33
2018-05-15T23:04:19.823Z,14.02
2018-05-15T23:06:48.932Z,13.93
2018-05-15T23:09:18.066Z,14.47
2018-05-15T23:11:47.141Z,13.67
2018-05-15T23:14:16.511Z,15.35
2018-05-15T23:16:45.646Z,13.87
2018-05-15T23:19:16.821Z,14.63
2018-05-15T23:21:45.882Z,13.07
2018-05-15T23:24:15.263Z,12.40
2018-05-15T23:26:44.581Z,12.82
2018-05-15T23:29:14.227Z,17.45
2018-05-15T23:31:44.330Z,13.87
2018-05-15T23:34:13.854Z,13.55
2018-05-15T23:36:43.424Z,13.43
2018-05-15T23:39:12.441Z,18.33
2018-05-15T23:41:43.200Z,13.75
2018-05-15T23:44:15.379Z,13.09
2018-05-15T23:46:46.334Z,13.16
2018-05-15T23:49:16.749Z,14.20
2018-05-15T23:51:46.640Z,15.85
2018-05-15T23:54:15.687Z,15.98
2018-05-15T23:56:44.821Z,16.47
2018-05-15T23:59:14.554Z,13.97
